createdAt,value
2018-06-03T00:00:16.906Z,97156.81
2018-06-03T00:02:45.048Z,97151.70
2018-06-03T00:05:13.196Z,97156.02
2018-06-03T00:07:44.096Z,97160.39
2018-06-03T00:10:12.240Z,97157.17
2018-06-03T00:12:40.391Z,97152.42
2018-06-03T00:15:09.625Z,97147.45
2018-06-03T00:17:37.795Z,97145.31
2018-06-03T00:20:05.960Z,97149.53
2018-06-03T00:22:34.104Z,97152.53
2018-06-03T00:25:02.295Z,97155.63
2018-06-03T00:27:30.473Z,97151.86
2018-06-03T00:29:58.668Z,97154.38
2018-06-03T00:32:26.830Z,97145.80
2018-06-03T00:34:55.173Z,97141.09
2018-06-03T00:37:23.364Z,97140.26
2018-06-03T00:40:00.909Z,97146.28
2018-06-03T00:42:29.049Z,97145.08
2018-06-03T00:44:57.247Z,97149.85
2018-06-03T00:47:25.427Z,97154.61
2018-06-03T00:49:53.589Z,97143.55
2018-06-03T00:52:21.754Z,97144.86
2018-06-03T00:54:49.921Z,97144.41
2018-06-03T00:57:21.911Z,97140.55
2018-06-03T00:59:50.059Z,97132.42
2018-06-03T01:02:18.228Z,97136.70
2018-06-03T01:04:46.428Z,97135.42
2018-06-03T01:07:44.964Z,97135.84
2018-06-03T01:10:13.129Z,97134.63
2018-06-03T01:12:41.303Z,97131.66
2018-06-03T01:15:09.441Z,97136.78
2018-06-03T01:17:37.599Z,97136.81
2018-06-03T01:20:05.766Z,97132.55
2018-06-03T01:22:33.921Z,97134.79
2018-06-03T01:25:02.122Z,97140.41
2018-06-03T01:27:30.306Z,97136.22
2018-06-03T01:32:34.147Z,97134.22
2018-06-03T01:35:02.319Z,97133.44
2018-06-03T01:37:34.257Z,97129.66
2018-06-03T01:40:02.431Z,97128.47
2018-06-03T01:42:37.247Z,97130.22
2018-06-03T01:45:05.408Z,97126.35
2018-06-03T01:47:35.391Z,97129.75
2018-06-03T01:50:03.572Z,97125.92
2018-06-03T01:52:31.723Z,97116.98
2018-06-03T01:55:00.041Z,97113.08
2018-06-03T01:57:29.963Z,97118.63
2018-06-03T01:59:58.145Z,97114.33
2018-06-03T02:02:26.289Z,97112.16
2018-06-03T02:04:54.476Z,97106.63
2018-06-03T02:07:22.615Z,97106.69
2018-06-03T02:09:50.802Z,97109.67
2018-06-03T02:12:18.976Z,97115.27
2018-06-03T02:14:49.812Z,97117.23
2018-06-03T02:17:17.959Z,97115.69
2018-06-03T02:19:46.144Z,97110.19
2018-06-03T02:22:18.069Z,97114.85
2018-06-03T02:24:46.286Z,97117.01
2018-06-03T02:27:14.476Z,97107.66
2018-06-03T02:29:42.624Z,97106.84
2018-06-03T02:32:13.734Z,97104.28
2018-06-03T02:34:41.894Z,97103.41
2018-06-03T02:37:10.046Z,97108.94
2018-06-03T02:39:38.552Z,97108.49
2018-06-03T02:42:06.706Z,97111.03
2018-06-03T02:44:34.878Z,97106.34
2018-06-03T02:47:03.027Z,97113.16
2018-06-03T02:49:31.162Z,97108.52
2018-06-03T02:51:59.841Z,97114.48
2018-06-03T02:54:29.128Z,97112.78
2018-06-03T02:56:57.284Z,97125.98
2018-06-03T02:59:25.506Z,97111.53
2018-06-03T03:01:53.659Z,97114.11
2018-06-03T03:04:21.812Z,97115.04
2018-06-03T03:06:49.981Z,97112.50
2018-06-03T03:09:18.160Z,97112.93
2018-06-03T03:11:46.737Z,97110.35
2018-06-03T03:14:14.914Z,97107.40
2018-06-03T03:16:43.067Z,97127.91
2018-06-03T03:19:11.270Z,97112.16
2018-06-03T03:21:39.462Z,97111.34
2018-06-03T03:24:09.627Z,97112.59
2018-06-03T03:26:37.797Z,97110.84
2018-06-03T03:29:05.949Z,97108.70
2018-06-03T03:31:34.130Z,97106.53
2018-06-03T03:34:02.272Z,97106.92
2018-06-03T03:36:30.929Z,97107.35
2018-06-03T03:38:59.092Z,97109.44
2018-06-03T03:41:36.858Z,97111.60
2018-06-03T03:44:05.003Z,97111.59
2018-06-03T03:46:33.186Z,97110.67
2018-06-03T03:49:01.350Z,97115.79
2018-06-03T03:51:29.502Z,97121.38
2018-06-03T03:53:57.660Z,97120.12
2018-06-03T03:56:26.604Z,97119.66
2018-06-03T03:58:54.799Z,97120.94
2018-06-03T04:01:29.576Z,97117.95
2018-06-03T04:03:57.772Z,97118.38
2018-06-03T04:06:25.918Z,97121.33
2018-06-03T04:08:54.072Z,97119.59
2018-06-03T04:11:22.226Z,97125.96
2018-06-03T04:13:50.468Z,97120.75
2018-06-03T04:16:18.651Z,97128.41
2018-06-03T04:18:46.830Z,97129.68
2018-06-03T04:21:15.039Z,97134.35
2018-06-03T04:23:43.184Z,97136.42
2018-06-03T04:26:11.359Z,97138.07
2018-06-03T04:28:39.550Z,97134.64
2018-06-03T04:31:07.733Z,97140.63
2018-06-03T04:33:35.920Z,97141.09
2018-06-03T04:36:04.068Z,97141.06
2018-06-03T04:38:32.232Z,97144.03
2018-06-03T04:41:00.376Z,97147.44
2018-06-03T04:43:28.570Z,97146.14
2018-06-03T04:45:56.719Z,97153.39
2018-06-03T04:48:34.889Z,97148.23
2018-06-03T04:51:09.372Z,97147.81
2018-06-03T04:53:37.542Z,97149.93
2018-06-03T04:56:05.715Z,97156.75
2018-06-03T04:58:33.916Z,97150.27
2018-06-03T05:01:02.191Z,97155.73
2018-06-03T05:03:30.339Z,97153.95
2018-06-03T05:05:58.505Z,97156.83
2018-06-03T05:08:26.650Z,97153.26
2018-06-03T05:10:54.826Z,97157.02
2018-06-03T05:13:23.084Z,97156.50
2018-06-03T05:15:51.242Z,97155.55
2018-06-03T05:18:19.392Z,97167.41
2018-06-03T05:20:47.538Z,97169.02
2018-06-03T05:23:16.441Z,97170.63
2018-06-03T05:25:44.599Z,97165.84
2018-06-03T05:28:12.772Z,97171.34
2018-06-03T05:30:40.911Z,97167.47
2018-06-03T05:33:09.579Z,97167.81
2018-06-03T05:35:40.206Z,97157.52
2018-06-03T05:38:08.373Z,97162.11
2018-06-03T05:40:36.542Z,97157.32
2018-06-03T05:43:04.696Z,97158.03
2018-06-03T05:45:32.887Z,97152.38
2018-06-03T05:48:01.051Z,97152.66
2018-06-03T05:50:29.214Z,97152.59
2018-06-03T05:52:59.062Z,97157.64
2018-06-03T05:55:27.302Z,97150.69
2018-06-03T05:57:56.851Z,97152.70
2018-06-03T06:00:28.385Z,97147.50
2018-06-03T06:02:56.575Z,97151.72
2018-06-03T06:05:24.757Z,97149.44
2018-06-03T06:07:59.768Z,97151.45
2018-06-03T06:10:28.025Z,97153.88
2018-06-03T06:12:56.176Z,97156.24
2018-06-03T06:15:24.340Z,97153.06
2018-06-03T06:17:52.571Z,97154.20
2018-06-03T06:20:21.160Z,97153.35
2018-06-03T06:22:49.366Z,97160.96
2018-06-03T06:25:24.933Z,97159.13
2018-06-03T06:27:53.087Z,97163.73
2018-06-03T06:30:21.254Z,97162.65
2018-06-03T06:32:50.293Z,97160.27
2018-06-03T06:35:18.496Z,97166.13
2018-06-03T06:37:46.745Z,97166.86
2018-06-03T06:40:14.933Z,97162.49
2018-06-03T06:42:43.089Z,97163.61
2018-06-03T06:48:04.940Z,97155.52
2018-06-03T06:50:33.245Z,97163.98
2018-06-03T06:53:01.407Z,97160.55
2018-06-03T06:55:29.554Z,97154.88
2018-06-03T06:57:57.745Z,97162.78
2018-06-03T07:00:25.899Z,97163.42
2018-06-03T07:02:54.077Z,97162.80
2018-06-03T07:05:29.057Z,97171.73
2018-06-03T07:07:57.204Z,97162.48
2018-06-03T07:10:28.436Z,97169.14
2018-06-03T07:12:56.603Z,97166.37
2018-06-03T07:15:28.186Z,97167.61
2018-06-03T07:17:56.324Z,97161.75
2018-06-03T07:20:24.466Z,97163.90
2018-06-03T07:22:52.695Z,97161.27
2018-06-03T07:25:27.543Z,97165.52
2018-06-03T07:27:55.730Z,97164.52
2018-06-03T07:30:23.900Z,97169.09
2018-06-03T07:32:52.053Z,97162.59
2018-06-03T07:35:20.209Z,97160.38
2018-06-03T07:37:48.363Z,97165.72
2018-06-03T07:40:16.553Z,97164.92
2018-06-03T07:42:44.709Z,97169.30
2018-06-03T07:45:12.876Z,97165.96
2018-06-03T07:47:41.029Z,97167.84
2018-06-03T07:50:12.977Z,97156.92
2018-06-03T07:52:41.143Z,97153.80
2018-06-03T07:55:09.308Z,97155.20
2018-06-03T07:57:37.493Z,97153.28
2018-06-03T08:00:05.673Z,97148.22
2018-06-03T08:02:34.071Z,97147.60
2018-06-03T08:05:02.261Z,97140.55
2018-06-03T08:07:30.474Z,97147.15
2018-06-03T08:09:58.636Z,97140.41
2018-06-03T08:12:26.803Z,97134.86
2018-06-03T08:14:54.987Z,97138.80
2018-06-03T08:17:23.130Z,97142.81
2018-06-03T08:19:51.276Z,97141.23
2018-06-03T08:22:19.502Z,97141.45
2018-06-03T08:24:48.912Z,97133.69
2018-06-03T08:27:17.064Z,97136.01
2018-06-03T08:29:45.693Z,97137.41
2018-06-03T08:32:15.309Z,97134.15
2018-06-03T08:37:26.263Z,97133.08
2018-06-03T08:39:54.435Z,97138.29
2018-06-03T08:42:22.623Z,97134.70
2018-06-03T08:44:50.871Z,97131.50
2018-06-03T08:47:19.049Z,97129.73
2018-06-03T08:49:47.248Z,97125.34
2018-06-03T08:52:15.432Z,97121.81
2018-06-03T08:54:43.614Z,97121.20
2018-06-03T08:57:11.768Z,97118.52
2018-06-03T08:59:46.215Z,97119.11
2018-06-03T09:02:14.946Z,97124.47
2018-06-03T09:04:43.179Z,97124.05
2018-06-03T09:07:11.338Z,97122.61
2018-06-03T09:09:39.487Z,97123.00
2018-06-03T09:12:07.660Z,97124.44
2018-06-03T09:14:35.836Z,97120.84
2018-06-03T09:17:04.889Z,97126.80
2018-06-03T09:19:33.433Z,97117.96
2018-06-03T09:22:01.594Z,97123.14
2018-06-03T09:24:29.767Z,97124.44
2018-06-03T09:26:57.928Z,97121.30
2018-06-03T09:29:26.092Z,97112.95
2018-06-03T09:31:54.220Z,97108.36
2018-06-03T09:34:22.400Z,97105.39
2018-06-03T09:36:50.568Z,97102.78
2018-06-03T09:39:18.759Z,97103.84
2018-06-03T09:41:46.967Z,97101.52
2018-06-03T09:44:15.971Z,97101.95
2018-06-03T09:46:44.129Z,97096.34
2018-06-03T09:49:12.285Z,97097.22
2018-06-03T09:51:40.444Z,97095.30
2018-06-03T09:54:16.347Z,97091.16
2018-06-03T09:56:44.546Z,97090.92
2018-06-03T09:59:12.681Z,97083.67
2018-06-03T10:01:40.888Z,97083.05
2018-06-03T10:04:09.056Z,97078.34
2018-06-03T10:06:37.229Z,97074.37
2018-06-03T10:09:05.423Z,97081.02
2018-06-03T10:11:33.615Z,97080.17
2018-06-03T10:14:03.410Z,97077.09
2018-06-03T10:16:31.560Z,97068.70
2018-06-03T10:18:59.736Z,97069.33
2018-06-03T10:21:27.895Z,97070.20
2018-06-03T10:23:56.050Z,97071.20
2018-06-03T10:26:24.207Z,97065.69
2018-06-03T10:28:52.370Z,97070.86
2018-06-03T10:31:20.537Z,97063.76
2018-06-03T10:33:48.683Z,97065.92
2018-06-03T10:36:16.872Z,97062.28
2018-06-03T10:38:45.025Z,97058.55
2018-06-03T10:41:13.206Z,97059.31
2018-06-03T10:43:41.362Z,97062.70
2018-06-03T10:46:09.549Z,97060.69
2018-06-03T10:48:37.731Z,97048.70
2018-06-03T10:51:05.947Z,97044.44
2018-06-03T10:53:34.129Z,97046.58
2018-06-03T10:56:02.300Z,97046.11
2018-06-03T10:58:30.456Z,97038.17
2018-06-03T11:00:58.596Z,97037.38
2018-06-03T11:03:26.788Z,97037.45
2018-06-03T11:05:54.980Z,97031.41
2018-06-03T11:08:23.195Z,97030.21
2018-06-03T11:10:51.385Z,97029.02
2018-06-03T11:13:19.595Z,97032.46
2018-06-03T11:15:47.770Z,97032.95
2018-06-03T11:18:18.504Z,97029.36
2018-06-03T11:20:46.659Z,97031.36
2018-06-03T11:23:14.839Z,97028.98
2018-06-03T11:25:43.023Z,97022.23
2018-06-03T11:28:11.176Z,97019.38
2018-06-03T11:30:39.351Z,97016.42
2018-06-03T11:33:07.584Z,97011.13
2018-06-03T11:35:36.320Z,97008.95
2018-06-03T11:38:04.553Z,97006.73
2018-06-03T11:40:32.729Z,97003.55
2018-06-03T11:43:00.887Z,97008.61
2018-06-03T11:45:29.076Z,97000.11
2018-06-03T11:47:57.224Z,96995.00
2018-06-03T11:50:25.407Z,96990.47
2018-06-03T11:52:53.576Z,96991.81
2018-06-03T11:55:23.450Z,96985.84
2018-06-03T11:57:52.429Z,96992.31
2018-06-03T12:00:20.590Z,96988.02
2018-06-03T12:02:51.780Z,96988.20
2018-06-03T12:05:19.940Z,96986.64
2018-06-03T12:07:48.091Z,96985.85
2018-06-03T12:10:19.615Z,96984.52
2018-06-03T12:12:47.763Z,96986.34
2018-06-03T12:15:15.920Z,96983.95
2018-06-03T12:17:44.150Z,96975.52
2018-06-03T12:20:15.692Z,96969.91
2018-06-03T12:22:43.858Z,96973.52
2018-06-03T12:25:18.381Z,96968.50
2018-06-03T12:27:46.567Z,96964.64
2018-06-03T12:30:22.852Z,96957.86
2018-06-03T12:32:51.029Z,96952.09
2018-06-03T12:35:19.209Z,96952.78
2018-06-03T12:37:47.356Z,96959.20
2018-06-03T12:40:15.530Z,96952.61
2018-06-03T12:42:43.705Z,96954.93
2018-06-03T12:45:12.030Z,96954.35
2018-06-03T12:47:40.212Z,96950.55
2018-06-03T12:50:08.388Z,96941.00
2018-06-03T12:52:37.196Z,96938.93
2018-06-03T12:55:10.059Z,96941.56
2018-06-03T12:57:38.226Z,96938.75
2018-06-03T13:00:07.271Z,96932.07
2018-06-03T13:02:35.461Z,96934.80
2018-06-03T13:05:03.628Z,96931.41
2018-06-03T13:07:31.810Z,96928.86
2018-06-03T13:09:59.964Z,96925.20
2018-06-03T13:12:28.177Z,96919.01
2018-06-03T13:14:56.347Z,96916.83
2018-06-03T13:17:24.532Z,96912.79
2018-06-03T13:19:52.707Z,96909.70
2018-06-03T13:22:20.899Z,96908.86
2018-06-03T13:24:49.056Z,96903.28
2018-06-03T13:27:17.214Z,96903.41
2018-06-03T13:29:46.939Z,96897.96
2018-06-03T13:32:15.108Z,96898.15
2018-06-03T13:34:44.190Z,96892.44
2018-06-03T13:37:12.373Z,96893.00
2018-06-03T13:42:31.951Z,96888.31
2018-06-03T13:45:00.415Z,96890.42
2018-06-03T13:47:28.607Z,96889.73
2018-06-03T13:49:56.765Z,96885.33
2018-06-03T13:52:31.013Z,96887.52
2018-06-03T13:54:59.724Z,96881.12
2018-06-03T13:57:27.920Z,96865.95
2018-06-03T13:59:56.072Z,96866.75
2018-06-03T14:02:24.256Z,96864.83
2018-06-03T14:04:52.451Z,96865.38
2018-06-03T14:07:58.143Z,96852.52
2018-06-03T14:10:27.524Z,96849.12
2018-06-03T14:12:56.814Z,96853.95
2018-06-03T14:15:26.127Z,96846.25
2018-06-03T14:17:55.336Z,96850.39
2018-06-03T14:20:24.933Z,96842.84
2018-06-03T14:22:54.292Z,96849.67
2018-06-03T14:25:23.628Z,96844.93
2018-06-03T14:27:52.894Z,96845.56
2018-06-03T14:30:22.327Z,96835.38
2018-06-03T14:32:51.799Z,96834.16
2018-06-03T14:35:21.516Z,96824.87
2018-06-03T14:37:52.069Z,96826.06
2018-06-03T14:40:22.223Z,96815.25
2018-06-03T14:42:51.537Z,96810.41
2018-06-03T14:45:20.822Z,96815.63
2018-06-03T14:47:50.026Z,96810.02
2018-06-03T14:50:19.259Z,96807.09
2018-06-03T14:52:48.566Z,96803.20
2018-06-03T14:55:17.916Z,96796.56
2018-06-03T14:57:47.346Z,96796.03
2018-06-03T15:00:16.613Z,96792.00
2018-06-03T15:02:46.015Z,96791.16
2018-06-03T15:05:15.394Z,96784.95
2018-06-03T15:07:44.664Z,96778.41
2018-06-03T15:10:20.215Z,96776.80
2018-06-03T15:12:49.571Z,96788.05
2018-06-03T15:15:18.790Z,96776.63
2018-06-03T15:17:48.053Z,96776.52
2018-06-03T15:20:18.396Z,96776.23
2018-06-03T15:22:54.876Z,96778.79
2018-06-03T15:25:24.384Z,96765.28
2018-06-03T15:27:53.746Z,96769.56
2018-06-03T15:30:22.987Z,96767.83
2018-06-03T15:32:52.225Z,96758.09
2018-06-03T15:35:21.540Z,96767.03
2018-06-03T15:37:50.886Z,96764.72
2018-06-03T15:40:20.214Z,96758.24
2018-06-03T15:42:49.653Z,96762.33
2018-06-03T15:45:19.000Z,96769.04
2018-06-03T15:47:48.362Z,96767.92
2018-06-03T15:50:27.159Z,96766.83
2018-06-03T15:53:05.070Z,96763.72
2018-06-03T15:55:34.345Z,96770.19
2018-06-03T15:58:03.557Z,96767.80
2018-06-03T16:00:32.893Z,96764.67
2018-06-03T16:03:02.359Z,96763.26
2018-06-03T16:05:32.820Z,96764.42
2018-06-03T16:08:02.180Z,96760.45
2018-06-03T16:10:31.503Z,96761.31
2018-06-03T16:13:00.808Z,96751.43
2018-06-03T16:15:29.995Z,96759.41
2018-06-03T16:17:59.201Z,96762.51
2018-06-03T16:20:28.461Z,96758.02
2018-06-03T16:23:01.542Z,96761.87
2018-06-03T16:25:30.848Z,96753.84
2018-06-03T16:28:02.046Z,96754.52
2018-06-03T16:30:31.406Z,96746.96
2018-06-03T16:33:00.698Z,96749.13
2018-06-03T16:35:29.936Z,96745.17
2018-06-03T16:37:59.186Z,96749.11
2018-06-03T16:40:28.595Z,96746.70
2018-06-03T16:42:57.993Z,96747.63
2018-06-03T16:45:27.330Z,96738.69
2018-06-03T16:47:57.208Z,96742.97
2018-06-03T16:50:27.263Z,96738.13
2018-06-03T16:52:56.667Z,96733.30
2018-06-03T16:55:25.917Z,96735.16
2018-06-03T16:57:55.425Z,96737.02
2018-06-03T17:00:25.110Z,96730.41
2018-06-03T17:02:54.609Z,96731.41
2018-06-03T17:05:33.087Z,96730.50
2018-06-03T17:08:04.709Z,96736.06
2018-06-03T17:10:34.040Z,96732.80
2018-06-03T17:13:03.367Z,96727.65
2018-06-03T17:15:32.707Z,96732.95
2018-06-03T17:18:02.504Z,96728.93
2018-06-03T17:20:34.199Z,96727.31
2018-06-03T17:23:03.695Z,96728.88
2018-06-03T17:25:33.577Z,96723.73
2018-06-03T17:28:03.046Z,96726.28
2018-06-03T17:30:33.134Z,96718.08
2018-06-03T17:33:02.574Z,96717.33
2018-06-03T17:35:32.138Z,96716.14
2018-06-03T17:38:01.374Z,96721.70
2018-06-03T17:40:30.763Z,96721.81
2018-06-03T17:43:00.129Z,96714.39
2018-06-03T17:45:29.525Z,96709.91
2018-06-03T17:47:59.138Z,96715.87
2018-06-03T17:50:32.412Z,96712.96
2018-06-03T17:53:02.473Z,96713.50
2018-06-03T17:55:31.758Z,96711.92
2018-06-03T17:58:01.432Z,96713.77
2018-06-03T18:00:38.418Z,96712.09
2018-06-03T18:03:08.006Z,96711.70
2018-06-03T18:05:38.064Z,96713.17
2018-06-03T18:08:09.545Z,96709.98
2018-06-03T18:10:42.731Z,96713.27
2018-06-03T18:13:12.462Z,96706.09
2018-06-03T18:15:41.893Z,96709.85
2018-06-03T18:18:11.328Z,96711.86
2018-06-03T18:20:41.403Z,96711.27
2018-06-03T18:23:10.954Z,96709.82
2018-06-03T18:25:45.081Z,96712.64
2018-06-03T18:28:28.931Z,96705.55
2018-06-03T18:30:59.670Z,96702.05
2018-06-03T18:33:29.715Z,96699.47
2018-06-03T18:36:00.123Z,96693.28
2018-06-03T18:38:29.886Z,96698.86
2018-06-03T18:40:59.713Z,96693.52
2018-06-03T18:43:29.903Z,96689.95
2018-06-03T18:45:59.756Z,96696.57
2018-06-03T18:48:29.929Z,96689.48
2018-06-03T18:51:00.140Z,96688.47
2018-06-03T18:53:29.968Z,96690.06
2018-06-03T18:56:00.235Z,96694.24
2018-06-03T18:58:30.134Z,96687.68
2018-06-03T19:01:02.441Z,96697.89
2018-06-03T19:03:31.675Z,96691.25
2018-06-03T19:06:04.922Z,96695.45
2018-06-03T19:08:34.236Z,96694.36
2018-06-03T19:11:04.219Z,96692.13
2018-06-03T19:13:33.614Z,96696.86
2018-06-03T19:16:03.077Z,96701.50
2018-06-03T19:18:32.881Z,96702.70
2018-06-03T19:21:02.316Z,96705.73
2018-06-03T19:23:31.666Z,96702.67
2018-06-03T19:26:00.963Z,96707.34
2018-06-03T19:28:30.445Z,96712.42
2018-06-03T19:31:00.913Z,96711.54
2018-06-03T19:33:30.681Z,96720.45
2018-06-03T19:36:00.955Z,96725.19
2018-06-03T19:38:30.700Z,96724.67
2018-06-03T19:41:00.693Z,96717.81
2018-06-03T19:43:32.487Z,96718.21
2018-06-03T19:46:01.951Z,96718.98
2018-06-03T19:48:31.130Z,96717.70
2018-06-03T19:51:00.364Z,96713.69
2018-06-03T19:53:30.621Z,96711.76
2018-06-03T19:55:59.782Z,96706.31
2018-06-03T19:58:29.294Z,96712.52
2018-06-03T20:00:59.805Z,96711.88
2018-06-03T20:03:28.958Z,96711.30
2018-06-03T20:05:58.228Z,96707.96
2018-06-03T20:08:30.774Z,96712.42
2018-06-03T20:10:59.989Z,96713.50
2018-06-03T20:13:29.676Z,96711.02
2018-06-03T20:16:00.256Z,96710.44
2018-06-03T20:18:29.540Z,96709.89
2018-06-03T20:20:58.797Z,96712.40
2018-06-03T20:23:27.960Z,96708.00
2018-06-03T20:25:57.267Z,96718.56
2018-06-03T20:28:26.461Z,96711.16
2018-06-03T20:30:55.626Z,96708.94
2018-06-03T20:33:24.766Z,96711.08
2018-06-03T20:35:54.051Z,96716.45
2018-06-03T20:38:23.351Z,96714.55
2018-06-03T20:40:52.586Z,96718.94
2018-06-03T20:43:21.720Z,96718.34
2018-06-03T20:45:50.968Z,96716.80
2018-06-03T20:48:20.261Z,96714.42
2018-06-03T20:50:49.444Z,96715.42
2018-06-03T20:53:18.679Z,96713.33
2018-06-03T20:55:47.851Z,96707.00
2018-06-03T20:58:17.062Z,96707.13
2018-06-03T21:00:46.364Z,96706.45
2018-06-03T21:03:15.515Z,96700.87
2018-06-03T21:05:44.586Z,96698.70
2018-06-03T21:08:13.868Z,96704.74
2018-06-03T21:10:43.034Z,96703.91
2018-06-03T21:13:12.170Z,96706.67
2018-06-03T21:15:41.462Z,96703.44
2018-06-03T21:18:10.667Z,96700.18
2018-06-03T21:20:40.343Z,96704.71
2018-06-03T21:23:09.544Z,96702.27
2018-06-03T21:25:38.632Z,96713.30
2018-06-03T21:28:07.713Z,96711.33
2018-06-03T21:30:36.826Z,96713.11
2018-06-03T21:33:06.602Z,96713.22
2018-06-03T21:35:35.734Z,96715.59
2018-06-03T21:38:04.858Z,96715.37
2018-06-03T21:40:33.969Z,96719.76
2018-06-03T21:43:03.096Z,96718.66
2018-06-03T21:45:32.263Z,96720.23
2018-06-03T21:48:01.741Z,96719.86
2018-06-03T21:50:31.535Z,96723.95
2018-06-03T21:53:00.641Z,96713.14
2018-06-03T21:55:29.849Z,96715.81
2018-06-03T21:58:02.495Z,96721.14
2018-06-03T22:00:31.541Z,96716.65
2018-06-03T22:03:00.647Z,96714.66
2018-06-03T22:05:35.311Z,96713.95
2018-06-03T22:08:04.399Z,96714.50
2018-06-03T22:10:33.618Z,96716.80
2018-06-03T22:13:02.713Z,96713.63
2018-06-03T22:15:31.871Z,96712.12
2018-06-03T22:18:00.970Z,96716.52
2018-06-03T22:20:30.221Z,96713.61
2018-06-03T22:22:59.455Z,96705.52
2018-06-03T22:25:28.498Z,96707.13
2018-06-03T22:28:03.361Z,96707.13
2018-06-03T22:30:32.451Z,96704.14
2018-06-03T22:33:01.579Z,96705.75
2018-06-03T22:35:30.657Z,96713.08
2018-06-03T22:38:00.429Z,96716.04
2018-06-03T22:40:29.547Z,96707.45
2018-06-03T22:42:58.697Z,96709.61
2018-06-03T22:45:27.816Z,96705.94
2018-06-03T22:47:59.235Z,96704.08
2018-06-03T22:50:30.152Z,96707.23
2018-06-03T22:52:59.355Z,96704.42
2018-06-03T22:55:28.496Z,96711.48
2018-06-03T22:57:57.533Z,96709.88
2018-06-03T23:00:31.575Z,96703.92
2018-06-03T23:03:05.900Z,96710.81
2018-06-03T23:05:36.291Z,96709.58
2018-06-03T23:08:10.427Z,96701.36
2018-06-03T23:10:39.607Z,96709.05
2018-06-03T23:13:08.749Z,96705.78
2018-06-03T23:15:37.879Z,96707.73
2018-06-03T23:18:07.050Z,96703.63
2018-06-03T23:20:36.143Z,96700.83
2018-06-03T23:23:05.347Z,96693.27
2018-06-03T23:25:34.639Z,96694.06
2018-06-03T23:28:03.878Z,96693.65
2018-06-03T23:30:32.995Z,96693.65
2018-06-03T23:33:02.136Z,96691.97
2018-06-03T23:35:31.565Z,96688.20
2018-06-03T23:38:00.743Z,96688.64
2018-06-03T23:40:29.883Z,96688.20
2018-06-03T23:42:58.999Z,96686.98
2018-06-03T23:45:28.170Z,96678.47
2018-06-03T23:47:57.347Z,96683.69
2018-06-03T23:50:26.493Z,96674.78
2018-06-03T23:52:59.273Z,96675.35
2018-06-03T23:55:28.418Z,96671.97
2018-06-03T23:58:09.096Z,96672.02
